createdAt,value
2022-12-09T13:19:58.694Z,17.17
2022-12-09T13:21:30.264Z,17.47
2022-12-09T13:23:23.248Z,17.80
2022-12-09T13:25:00.322Z,18.14
2022-12-09T13:26:57.935Z,18.38
2022-12-09T13:28:29.317Z,18.65
2022-12-09T13:30:21.016Z,18.83
2022-12-09T13:31:58.676Z,19.02
2022-12-09T13:33:33.914Z,19.18
2022-12-09T13:35:11.244Z,19.31
2022-12-09T13:36:43.392Z,19.43
2022-12-09T13:38:24.494Z,19.54
2022-12-09T13:39:56.175Z,19.65
2022-12-09T13:41:27.560Z,19.75
2022-12-09T13:43:19.256Z,19.83
2022-12-09T13:44:50.636Z,19.91
2022-12-09T13:46:22.578Z,19.99
2022-12-09T13:47:54.434Z,20.05
2022-12-09T13:49:25.884Z,20.11
2022-12-09T13:50:57.967Z,20.17
2022-12-09T13:52:39.102Z,20.22
2022-12-09T13:54:11.298Z,20.27
2022-12-09T13:55:48.453Z,20.31
2022-12-09T13:57:22.850Z,20.33
2022-12-09T13:58:57.083Z,20.36
2022-12-09T14:00:28.508Z,20.41
2022-12-09T14:01:59.885Z,20.42
2022-12-09T14:03:36.740Z,20.46
2022-12-09T14:05:12.211Z,20.49
2022-12-09T14:06:46.253Z,20.52
2022-12-09T14:08:22.471Z,20.54
2022-12-09T14:09:54.479Z,20.56
2022-12-09T14:11:35.156Z,20.59
2022-12-09T14:13:18.732Z,20.60
2022-12-09T14:14:50.782Z,20.63
2022-12-09T14:16:24.873Z,20.66
2022-12-09T14:18:03.799Z,20.68
2022-12-09T14:19:45.090Z,20.70
2022-12-09T14:21:19.517Z,20.72
2022-12-09T14:23:09.284Z,20.73
2022-12-09T14:24:40.747Z,20.74
2022-12-09T14:26:12.142Z,20.74
2022-12-09T14:27:50.091Z,20.76
2022-12-09T14:29:39.905Z,20.76
2022-12-09T14:31:11.406Z,20.77
2022-12-09T14:32:48.698Z,20.78
2022-12-09T14:34:25.528Z,20.77
2022-12-09T14:36:03.181Z,20.78
2022-12-09T14:37:37.474Z,20.78
2022-12-09T14:39:26.769Z,20.78
2022-12-09T14:41:09.714Z,20.78
2022-12-09T14:42:55.980Z,20.77
2022-12-09T14:44:40.404Z,20.78
2022-12-09T14:46:21.841Z,20.77
2022-12-09T14:47:53.284Z,20.78
2022-12-09T14:49:25.710Z,20.78
2022-12-09T14:51:10.065Z,20.74
2022-12-09T14:52:51.459Z,20.78
2022-12-09T14:54:24.093Z,20.78
2022-12-09T14:55:55.478Z,20.79
2022-12-09T14:57:26.861Z,20.79
2022-12-09T14:59:18.533Z,20.79
2022-12-09T15:00:58.151Z,20.80
2022-12-09T15:02:30.311Z,20.79
2022-12-09T15:04:04.710Z,20.81
2022-12-09T15:05:38.660Z,20.80
2022-12-09T15:07:13.980Z,20.80
2022-12-09T15:08:45.624Z,20.81
2022-12-09T15:10:18.040Z,20.80
2022-12-09T15:11:49.459Z,20.80
2022-12-09T15:13:20.873Z,20.81
2022-12-09T15:14:54.752Z,20.81
2022-12-09T15:16:26.658Z,20.81
2022-12-09T15:18:00.472Z,20.81
2022-12-09T15:19:59.309Z,20.80
2022-12-09T15:21:27.975Z,20.81
2022-12-09T15:23:18.049Z,20.81
2022-12-09T15:24:50.985Z,20.81
2022-12-09T15:26:22.771Z,20.82
2022-12-09T15:28:04.685Z,20.81
2022-12-09T15:29:36.986Z,20.82
2022-12-09T15:31:35.054Z,20.82
2022-12-09T15:33:16.999Z,20.82
2022-12-09T15:34:48.429Z,20.83
2022-12-09T15:36:30.558Z,20.82
2022-12-09T15:38:03.222Z,20.83
2022-12-09T15:39:45.798Z,20.83
2022-12-09T15:41:18.063Z,20.83
2022-12-09T15:42:52.743Z,20.83
2022-12-09T15:44:24.346Z,20.84
2022-12-09T15:45:56.345Z,20.83
2022-12-09T15:47:27.775Z,20.83
2022-12-09T15:48:59.202Z,20.83
2022-12-09T15:50:41.781Z,20.84
2022-12-09T15:52:13.498Z,20.80
2022-12-09T15:53:50.561Z,20.83
2022-12-09T15:55:27.623Z,20.84
2022-12-09T15:57:00.310Z,20.85
2022-12-09T15:58:42.536Z,20.86
2022-12-09T16:00:14.250Z,20.84
2022-12-09T16:01:49.793Z,20.86
2022-12-09T16:03:23.236Z,20.86
2022-12-09T16:04:57.696Z,20.85
2022-12-09T16:06:32.934Z,20.86
2022-12-09T16:08:04.584Z,20.85
2022-12-09T16:09:36.177Z,20.86
2022-12-09T16:11:07.910Z,20.87
2022-12-09T16:12:40.788Z,20.86
2022-12-09T16:14:12.998Z,20.86
2022-12-09T16:15:52.870Z,20.86
2022-12-09T16:17:26.197Z,20.82
2022-12-09T16:18:58.396Z,20.86
2022-12-09T16:20:32.879Z,20.86
2022-12-09T16:22:11.398Z,20.87
2022-12-09T16:23:43.751Z,20.87
2022-12-09T16:25:23.257Z,20.87
2022-12-09T16:26:55.365Z,20.87
2022-12-09T16:28:28.478Z,20.86
2022-12-09T16:30:19.870Z,20.86
2022-12-09T16:32:13.768Z,20.86
2022-12-09T16:33:46.723Z,20.86
2022-12-09T16:35:28.261Z,20.87
2022-12-09T16:37:05.267Z,20.87
2022-12-09T16:39:10.760Z,20.89
2022-12-09T16:40:45.816Z,20.89
2022-12-09T16:42:21.701Z,20.90
2022-12-09T16:43:55.331Z,20.90
2022-12-09T16:45:31.386Z,20.91
2022-12-09T16:47:03.579Z,20.92
2022-12-09T16:48:35.676Z,20.93
2022-12-09T16:50:08.910Z,20.94
2022-12-09T16:51:42.514Z,20.95
2022-12-09T16:53:18.523Z,20.97
2022-12-09T16:54:50.727Z,20.99
2022-12-09T16:56:23.361Z,20.99
2022-12-09T16:57:56.982Z,20.99
2022-12-09T16:59:37.040Z,20.99
2022-12-09T17:01:16.613Z,20.99
2022-12-09T17:02:49.495Z,21.00
2022-12-09T17:04:25.525Z,21.01
2022-12-09T17:05:57.801Z,21.02
2022-12-09T17:07:29.860Z,21.03
2022-12-09T17:09:02.149Z,21.04
2022-12-09T17:10:34.319Z,21.05
2022-12-09T17:12:07.813Z,21.06
2022-12-09T17:13:42.321Z,21.06
2022-12-09T17:15:14.982Z,21.06
2022-12-09T17:16:47.520Z,21.08
2022-12-09T17:18:20.984Z,21.07
2022-12-09T17:19:53.261Z,21.06
2022-12-09T17:21:25.420Z,21.07
2022-12-09T17:22:57.603Z,21.06
2022-12-09T17:24:29.786Z,21.06
2022-12-09T17:26:02.875Z,21.05
2022-12-09T17:27:35.058Z,21.06
2022-12-09T17:29:11.182Z,21.05
2022-12-09T17:30:44.624Z,21.06
2022-12-09T17:32:16.677Z,21.05
2022-12-09T17:33:48.841Z,21.06
2022-12-09T17:35:20.725Z,21.04
2022-12-09T17:36:53.319Z,21.06
2022-12-09T17:38:25.297Z,21.05
2022-12-09T17:40:03.191Z,21.06
2022-12-09T17:41:36.085Z,21.06
2022-12-09T17:43:12.557Z,21.06
2022-12-09T17:44:47.633Z,21.06
2022-12-09T17:46:19.863Z,21.07
2022-12-09T17:47:55.858Z,21.06
2022-12-09T17:49:27.809Z,21.06
2022-12-09T17:51:07.900Z,21.07
2022-12-09T17:52:39.428Z,21.08
2022-12-09T17:54:12.907Z,21.08
2022-12-09T17:55:44.797Z,21.04
2022-12-09T17:57:17.035Z,21.08
2022-12-09T17:58:54.337Z,21.09
2022-12-09T18:00:25.850Z,21.09
2022-12-09T18:01:57.654Z,21.09
2022-12-09T18:03:54.279Z,21.09
2022-12-09T18:05:22.534Z,21.08
2022-12-09T18:06:54.030Z,21.07
2022-12-09T18:08:28.535Z,21.08
2022-12-09T18:10:00.052Z,21.07
2022-12-09T18:11:31.681Z,21.07
2022-12-09T18:13:03.135Z,21.07
2022-12-09T18:14:34.720Z,21.08
2022-12-09T18:16:09.927Z,21.07
2022-12-09T18:17:47.203Z,21.07
2022-12-09T18:19:19.301Z,21.08
2022-12-09T18:20:51.027Z,21.07
2022-12-09T18:22:23.461Z,21.07
2022-12-09T18:23:54.922Z,21.08
2022-12-09T18:25:26.377Z,21.08
2022-12-09T18:26:58.293Z,21.08
2022-12-09T18:28:30.082Z,21.09
2022-12-09T18:30:01.886Z,21.08
2022-12-09T18:31:33.750Z,21.07
2022-12-09T18:33:05.531Z,21.08
2022-12-09T18:34:37.091Z,21.09
2022-12-09T18:36:09.830Z,21.08
2022-12-09T18:37:44.747Z,21.09
2022-12-09T18:39:16.673Z,21.10
2022-12-09T18:40:48.293Z,21.11
2022-12-09T18:42:19.893Z,21.11
2022-12-09T18:43:52.572Z,21.11
2022-12-09T18:45:24.639Z,21.12
2022-12-09T18:46:56.506Z,21.12
2022-12-09T18:48:28.510Z,21.14
2022-12-09T18:50:00.543Z,21.13
2022-12-09T18:51:32.685Z,21.13
2022-12-09T18:53:04.254Z,21.15
2022-12-09T18:54:36.889Z,21.14
2022-12-09T18:56:08.599Z,21.13
2022-12-09T18:57:40.257Z,21.14
2022-12-09T18:59:15.323Z,21.14
2022-12-09T19:00:50.425Z,21.15
2022-12-09T19:02:22.335Z,21.14
2022-12-09T19:03:54.844Z,21.15
2022-12-09T19:05:26.985Z,21.14
2022-12-09T19:07:02.485Z,21.15
2022-12-09T19:08:34.745Z,21.14
2022-12-09T19:10:07.079Z,21.15
2022-12-09T19:11:39.800Z,21.13
2022-12-09T19:13:14.868Z,21.14
2022-12-09T19:14:47.138Z,21.13
2022-12-09T19:16:20.315Z,21.14
2022-12-09T19:17:52.531Z,21.14
2022-12-09T19:19:26.073Z,21.13
2022-12-09T19:21:06.757Z,21.14
2022-12-09T19:22:39.162Z,21.15
2022-12-09T19:24:21.494Z,21.14
2022-12-09T19:25:53.724Z,21.14
2022-12-09T19:27:29.068Z,21.14
2022-12-09T19:29:02.486Z,21.15
2022-12-09T19:30:36.167Z,21.13
2022-12-09T19:32:29.417Z,21.13
2022-12-09T19:34:02.545Z,21.13
2022-12-09T19:35:36.371Z,21.13
2022-12-09T19:37:09.322Z,21.13
2022-12-09T19:38:43.695Z,21.09
2022-12-09T19:40:16.532Z,21.14
2022-12-09T19:41:55.190Z,21.14
2022-12-09T19:43:30.139Z,21.14
2022-12-09T19:45:07.681Z,21.14
2022-12-09T19:46:50.820Z,21.13
2022-12-09T19:48:26.081Z,21.14
2022-12-09T19:49:58.187Z,21.14
2022-12-09T19:51:30.326Z,21.14
2022-12-09T19:53:02.156Z,21.13
2022-12-09T19:54:34.052Z,21.13
2022-12-09T19:56:07.145Z,21.14
2022-12-09T19:57:39.217Z,21.12
2022-12-09T19:59:11.509Z,21.12
2022-12-09T20:00:46.556Z,21.11
2022-12-09T20:02:18.723Z,21.12
2022-12-09T20:03:51.494Z,21.09
2022-12-09T20:05:23.654Z,21.08
2022-12-09T20:06:55.803Z,21.07
2022-12-09T20:08:27.917Z,21.06
2022-12-09T20:10:00.165Z,21.03
2022-12-09T20:11:31.892Z,21.02
2022-12-09T20:13:03.976Z,21.00
2022-12-09T20:14:36.194Z,20.98
2022-12-09T20:16:10.074Z,20.92
2022-12-09T20:17:42.199Z,20.95
2022-12-09T20:19:15.673Z,20.94
2022-12-09T20:20:49.156Z,20.92
2022-12-09T20:22:23.528Z,20.90
2022-12-09T20:25:28.899Z,20.88
2022-12-09T20:27:01.113Z,20.87
2022-12-09T20:28:33.350Z,20.85
2022-12-09T20:30:07.499Z,20.84
2022-12-09T20:31:40.012Z,20.83
2022-12-09T20:33:12.098Z,20.82
2022-12-09T20:34:44.859Z,20.82
2022-12-09T20:36:21.638Z,20.80
2022-12-09T20:37:53.494Z,20.78
2022-12-09T20:39:25.486Z,20.77
2022-12-09T20:40:57.763Z,20.77
2022-12-09T20:42:30.985Z,20.76
2022-12-09T20:44:03.280Z,20.74
2022-12-09T20:45:38.306Z,20.73
2022-12-09T20:47:10.591Z,20.72
2022-12-09T20:48:43.129Z,20.71
2022-12-09T20:50:15.146Z,20.70
2022-12-09T20:51:52.781Z,20.69
2022-12-09T20:53:26.971Z,20.68
2022-12-09T20:54:58.693Z,20.66
2022-12-09T20:56:30.933Z,20.66
2022-12-09T20:58:03.225Z,20.65
2022-12-09T20:59:35.265Z,20.63
2022-12-09T21:01:21.965Z,20.63
2022-12-09T21:02:54.236Z,20.61
2022-12-09T21:04:26.180Z,20.61
2022-12-09T21:05:58.252Z,20.59
2022-12-09T21:07:30.470Z,20.60
2022-12-09T21:09:03.590Z,20.58
2022-12-09T21:10:35.801Z,20.57
2022-12-09T21:12:08.087Z,20.58
2022-12-09T21:13:40.486Z,20.57
2022-12-09T21:15:12.221Z,20.57
2022-12-09T21:16:44.486Z,20.57
2022-12-09T21:18:33.491Z,20.55
